Time;durP1;ratioP1;P1;durP2;ratioP2;P2;SDS_P1;SDS_P2;PMS_P1;PMS_P2;Temp;Humidity;BMP_temperature;BMP_pressure;BME280_temperature;BME280_humidity;BME280_pressure;Samples;Min_cycle;Max_cycle;Signal;HPM_P1;HPM_P2
2022/04/16 00:01:43;;;;;;;21.10;15.32;;;10.00;64.00;;;;;;5067491;28;25068;-67
2022/04/16 00:04:09;;;;;;;18.38;15.95;;;10.00;64.90;;;;;;5067317;28;25103;-67
2022/04/16 00:06:35;;;;;;;19.65;15.45;;;10.10;65.00;;;;;;5066517;28;25056;-67
2022/04/16 00:09:02;;;;;;;19.48;15.27;;;10.10;64.30;;;;;;5066550;28;25074;-67
2022/04/16 00:11:27;;;;;;;18.75;15.52;;;10.20;64.30;;;;;;5065960;28;25074;-67
2022/04/16 00:13:53;;;;;;;20.50;17.40;;;10.20;63.20;;;;;;5066905;28;25148;-68
2022/04/16 00:16:19;;;;;;;18.60;16.60;;;10.20;62.70;;;;;;5066710;28;25067;-68
2022/04/16 00:18:44;;;;;;;20.40;16.90;;;10.00;62.50;;;;;;5067568;28;25063;-65
2022/04/16 00:21:12;;;;;;;20.15;16.90;;;10.00;63.10;;;;;;5068438;28;25116;-68
2022/04/16 00:23:41;;;;;;;21.70;17.65;;;10.00;63.70;;;;;;5052283;28;25059;-67
2022/04/16 00:26:07;;;;;;;21.30;17.80;;;10.00;63.80;;;;;;5069294;28;25107;-69
2022/04/16 00:28:35;;;;;;;23.52;18.48;;;10.00;63.00;;;;;;5071374;28;25050;-67
2022/04/16 00:31:01;;;;;;;24.70;18.52;;;9.90;62.30;;;;;;5055664;28;25103;-67
2022/04/16 00:33:26;;;;;;;21.27;17.77;;;10.00;62.90;;;;;;5070500;28;25086;-67
2022/04/16 00:35:52;;;;;;;26.23;19.92;;;10.00;62.50;;;;;;5069783;28;25080;-67
2022/04/16 00:38:19;;;;;;;22.92;18.40;;;10.00;62.60;;;;;;5072771;28;25077;-67
2022/04/16 00:40:44;;;;;;;23.50;18.55;;;10.00;62.50;;;;;;5069628;28;25088;-68
2022/04/16 00:43:21;;;;;;;23.02;18.42;;;10.10;62.60;;;;;;5069280;28;25143;-72
2022/04/16 00:45:47;;;;;;;24.88;18.67;;;10.10;61.90;;;;;;5053250;28;25044;-68
2022/04/16 00:48:12;;;;;;;23.90;18.75;;;10.00;62.10;;;;;;5069213;28;25106;-67
2022/04/16 00:50:39;;;;;;;21.38;18.27;;;9.90;62.50;;;;;;5079312;28;25099;-69
2022/04/16 00:53:05;;;;;;;22.52;19.45;;;9.90;62.40;;;;;;5077488;28;25077;-66
2022/04/16 00:55:36;;;;;;;24.48;19.40;;;9.90;63.00;;;;;;5059649;28;25064;-67
2022/04/16 00:58:02;;;;;;;24.17;18.83;;;9.80;63.70;;;;;;5065892;28;25063;-67
2022/04/16 01:00:27;;;;;;;22.80;17.95;;;9.80;64.10;;;;;;5046276;28;25071;-67
2022/04/16 01:02:55;;;;;;;27.23;18.88;;;9.80;64.70;;;;;;5065043;28;25058;-67
2022/04/16 01:05:21;;;;;;;21.75;17.70;;;9.80;65.40;;;;;;5065772;28;25053;-67
2022/04/16 01:07:58;;;;;;;23.40;19.30;;;9.80;65.60;;;;;;5064371;28;25061;-67
2022/04/16 01:10:29;;;;;;;25.67;18.15;;;9.80;66.40;;;;;;5067959;28;25090;-67
2022/04/16 01:12:56;;;;;;;22.88;18.23;;;9.80;66.30;;;;;;5068372;28;25090;-66
2022/04/16 01:15:23;;;;;;;27.17;19.23;;;9.70;67.70;;;;;;5065312;28;25070;-68
2022/04/16 01:17:49;;;;;;;25.63;19.02;;;9.70;67.50;;;;;;5064342;28;25108;-66
2022/04/16 01:20:19;;;;;;;24.35;18.08;;;9.60;67.80;;;;;;5065848;28;25123;-67
2022/04/16 01:22:46;;;;;;;26.35;19.05;;;9.50;68.50;;;;;;5066523;28;25063;-66
2022/04/16 01:25:11;;;;;;;22.58;18.08;;;9.50;68.80;;;;;;5051123;28;25051;-65
2022/04/16 01:27:43;;;;;;;24.65;18.50;;;9.50;69.40;;;;;;5068000;28;25066;-67
2022/04/16 01:30:10;;;;;;;25.88;19.02;;;9.40;69.90;;;;;;5068964;28;25109;-66
2022/04/16 01:32:36;;;;;;;26.92;18.23;;;9.40;71.00;;;;;;5050350;28;25102;-67
2022/04/16 01:35:03;;;;;;;22.48;18.55;;;9.40;71.30;;;;;;5070387;28;25090;-70
2022/04/16 01:37:33;;;;;;;26.98;21.00;;;9.30;72.30;;;;;;5070021;28;25136;-71
2022/04/16 01:40:00;;;;;;;26.60;19.25;;;9.30;74.10;;;;;;5069310;28;25085;-69
2022/04/16 01:42:29;;;;;;;24.63;19.65;;;9.30;75.50;;;;;;5069650;28;25053;-69
2022/04/16 01:45:00;;;;;;;27.95;19.45;;;9.20;76.70;;;;;;5068317;28;25080;-70
2022/04/16 01:47:29;;;;;;;25.80;18.40;;;9.20;77.20;;;;;;5072337;28;25071;-69
2022/04/16 01:49:55;;;;;;;25.90;18.98;;;9.10;78.00;;;;;;5072684;28;25091;-70
2022/04/16 01:52:24;;;;;;;24.58;19.20;;;9.00;78.70;;;;;;5074077;28;25071;-70
2022/04/16 01:54:50;;;;;;;27.15;17.65;;;9.00;79.60;;;;;;5053157;28;25156;-72
2022/04/16 01:57:20;;;;;;;23.80;18.25;;;8.90;79.40;;;;;;5069294;28;25113;-70
2022/04/16 01:59:46;;;;;;;23.05;17.75;;;8.90;79.80;;;;;;5068407;28;25068;-69
2022/04/16 02:02:13;;;;;;;28.15;18.42;;;9.00;80.00;;;;;;5067769;28;25109;-68
2022/04/16 02:04:38;;;;;;;27.73;17.77;;;8.90;79.70;;;;;;5067348;28;25074;-71
2022/04/16 02:07:04;;;;;;;23.85;17.92;;;8.80;80.80;;;;;;5068457;28;25064;-71
2022/04/16 02:09:29;;;;;;;24.02;18.20;;;8.80;81.20;;;;;;5068810;28;25107;-72
2022/04/16 02:11:55;;;;;;;23.77;18.40;;;8.80;81.90;;;;;;5073879;28;25073;-69
2022/04/16 02:14:23;;;;;;;24.33;18.67;;;8.80;81.10;;;;;;5069396;28;25145;-68
2022/04/16 02:16:49;;;;;;;24.70;17.77;;;8.70;82.00;;;;;;5068541;28;25056;-70
2022/04/16 02:19:15;;;;;;;24.73;17.80;;;8.70;82.10;;;;;;5066814;28;25055;-72
2022/04/16 02:21:44;;;;;;;22.25;17.08;;;8.60;82.70;;;;;;5067452;28;25057;-71
2022/04/16 02:24:11;;;;;;;26.20;18.60;;;8.70;83.70;;;;;;5066476;28;25119;-69
2022/04/16 02:26:37;;;;;;;22.67;17.88;;;8.70;83.00;;;;;;5066121;28;25061;-69
2022/04/16 02:29:04;;;;;;;24.60;18.13;;;8.60;83.00;;;;;;5067382;28;25127;-69
2022/04/16 02:31:29;;;;;;;26.63;20.55;;;8.50;84.20;;;;;;5066435;28;25118;-71
2022/04/16 02:33:55;;;;;;;23.80;18.45;;;8.40;84.30;;;;;;5064220;28;25146;-69
2022/04/16 02:36:27;;;;;;;34.58;20.42;;;8.50;85.20;;;;;;5066008;28;25085;-69
2022/04/16 02:38:57;;;;;;;22.27;18.60;;;8.40;85.10;;;;;;5064880;28;25060;-69
2022/04/16 02:41:23;;;;;;;30.17;20.67;;;8.40;85.50;;;;;;5070658;28;25092;-70
2022/04/16 02:43:49;;;;;;;25.88;20.50;;;8.40;84.60;;;;;;5067185;28;25059;-68
2022/04/16 02:49:00;;;;;;;26.33;19.88;;;8.30;85.70;;;;;;5068734;28;25143;-70
2022/04/16 02:51:26;;;;;;;29.00;19.63;;;8.30;84.90;;;;;;5067643;28;25152;-70
2022/04/16 02:53:52;;;;;;;25.95;19.38;;;8.30;85.80;;;;;;5067205;28;25129;-69
2022/04/16 02:56:17;;;;;;;25.15;19.50;;;8.40;85.30;;;;;;5049428;28;25070;-69
2022/04/16 02:58:43;;;;;;;27.30;20.52;;;8.40;84.30;;;;;;5067096;28;25125;-70
2022/04/16 03:01:09;;;;;;;25.17;19.33;;;8.30;84.70;;;;;;5067135;28;25059;-68
2022/04/16 03:03:34;;;;;;;27.92;19.92;;;8.30;85.10;;;;;;5067465;28;25121;-70
2022/04/16 03:06:00;;;;;;;30.52;20.30;;;8.30;85.50;;;;;;5067357;28;25103;-69
2022/04/16 03:08:25;;;;;;;26.80;20.15;;;8.30;85.20;;;;;;5066442;28;25081;-71
2022/04/16 03:10:52;;;;;;;28.58;20.85;;;8.30;85.40;;;;;;5067060;28;25143;-69
2022/04/16 03:13:18;;;;;;;29.88;21.23;;;8.30;85.70;;;;;;5065945;28;25076;-69
2022/04/16 03:18:29;;;;;;;27.13;20.88;;;8.20;85.50;;;;;;5067433;28;25064;-71
2022/04/16 03:20:54;;;;;;;30.10;20.58;;;8.30;85.20;;;;;;5066322;28;25057;-69
2022/04/16 03:23:20;;;;;;;29.58;21.58;;;8.20;85.30;;;;;;5074976;28;25102;-69
2022/04/16 03:25:46;;;;;;;29.23;21.15;;;8.20;85.80;;;;;;5082138;28;25112;-70
2022/04/16 03:28:12;;;;;;;30.25;21.83;;;8.20;85.60;;;;;;5087054;28;25067;-66
2022/04/16 03:30:38;;;;;;;30.52;21.60;;;8.20;87.00;;;;;;5077345;28;25093;-69
2022/04/16 03:33:04;;;;;;;34.88;23.15;;;8.10;87.50;;;;;;5052713;28;25154;-68
2022/04/16 03:35:29;;;;;;;29.55;21.90;;;8.10;87.80;;;;;;5065848;28;25129;-69
2022/04/16 03:37:55;;;;;;;28.85;21.67;;;8.10;88.10;;;;;;5067450;28;25101;-72
2022/04/16 03:40:24;;;;;;;28.88;21.15;;;8.10;88.90;;;;;;5066562;28;25082;-67
2022/04/16 03:42:51;;;;;;;29.13;20.05;;;8.10;88.60;;;;;;5067282;28;25076;-68
2022/04/16 03:45:20;;;;;;;30.88;21.27;;;8.10;89.30;;;;;;5064979;28;25069;-70
2022/04/16 03:47:46;;;;;;;32.17;22.65;;;8.00;90.30;;;;;;5065974;28;25109;-71
2022/04/16 03:50:12;;;;;;;29.27;21.10;;;8.00;90.30;;;;;;5066473;28;25132;-68
2022/04/16 03:52:45;;;;;;;30.95;22.20;;;7.90;90.90;;;;;;5067009;28;25070;-70
2022/04/16 04:00:52;;;;;;;32.28;22.35;;;7.90;91.70;;;;;;5067398;28;25069;-70
2022/04/16 04:03:18;;;;;;;36.03;23.70;;;7.90;91.50;;;;;;5065638;28;25079;-68
2022/04/16 04:05:53;;;;;;;30.80;22.75;;;7.80;92.10;;;;;;5066469;28;25068;-70
2022/04/16 04:08:20;;;;;;;34.67;24.05;;;7.80;92.70;;;;;;5066499;28;25104;-69
2022/04/16 04:10:46;;;;;;;35.67;24.15;;;7.70;93.10;;;;;;5069874;28;25118;-68
2022/04/16 04:13:13;;;;;;;36.45;24.27;;;7.70;93.70;;;;;;5070159;28;25107;-69
2022/04/16 04:15:39;;;;;;;35.35;23.92;;;7.70;94.60;;;;;;5064794;28;25120;-69
2022/04/16 04:18:05;;;;;;;35.15;24.20;;;7.70;94.40;;;;;;5071917;28;25059;-68
2022/04/16 04:20:31;;;;;;;32.97;24.40;;;7.70;94.50;;;;;;5078172;28;25082;-70
2022/04/16 04:22:56;;;;;;;39.63;25.45;;;7.60;94.80;;;;;;5069841;28;25069;-69
2022/04/16 04:25:22;;;;;;;36.88;25.52;;;7.60;95.10;;;;;;5067039;28;25085;-70
2022/04/16 04:27:48;;;;;;;38.35;25.27;;;7.60;96.40;;;;;;5065261;28;25073;-70
2022/04/16 04:30:14;;;;;;;33.25;25.25;;;7.60;96.50;;;;;;5068772;28;25056;-71
2022/04/16 04:32:39;;;;;;;34.58;25.05;;;7.50;96.50;;;;;;5065309;28;25067;-69
2022/04/16 04:35:06;;;;;;;34.90;25.90;;;7.50;97.70;;;;;;5046625;28;25067;-69
2022/04/16 04:37:32;;;;;;;38.15;24.85;;;7.40;98.20;;;;;;5065153;28;25076;-71
2022/04/16 04:39:57;;;;;;;35.92;24.60;;;7.40;98.70;;;;;;5065513;28;25064;-67
2022/04/16 04:42:27;;;;;;;41.65;25.48;;;7.40;98.80;;;;;;5063564;28;25082;-69
2022/04/16 04:44:53;;;;;;;33.42;25.35;;;7.40;99.60;;;;;;5068840;28;25060;-72
2022/04/16 04:47:19;;;;;;;38.58;26.95;;;7.40;99.90;;;;;;5077193;28;25065;-70
2022/04/16 04:49:45;;;;;;;37.35;25.95;;;7.30;99.90;;;;;;5073749;28;25112;-70
2022/04/16 04:52:10;;;;;;;37.78;27.15;;;7.30;99.90;;;;;;5070642;28;25071;-70
2022/04/16 04:54:36;;;;;;;33.08;24.92;;;7.30;99.90;;;;;;5069390;28;25091;-69
2022/04/16 04:57:05;;;;;;;35.97;26.67;;;7.20;99.90;;;;;;5071207;28;25062;-68
2022/04/16 04:59:30;;;;;;;42.15;27.10;;;7.30;99.90;;;;;;5064854;28;25083;-67
2022/04/16 05:01:56;;;;;;;35.15;26.65;;;7.30;99.90;;;;;;5046095;28;25048;-72
2022/04/16 05:04:21;;;;;;;37.75;26.77;;;7.30;99.90;;;;;;5042505;28;25060;-70
2022/04/16 05:06:47;;;;;;;39.08;26.85;;;7.30;99.90;;;;;;5064403;28;25039;-71
2022/04/16 05:09:12;;;;;;;37.75;27.70;;;7.30;99.90;;;;;;5064613;28;25068;-70
2022/04/16 05:11:38;;;;;;;37.53;27.30;;;7.20;99.90;;;;;;5064570;28;25179;-70
2022/04/16 05:14:03;;;;;;;38.00;27.17;;;7.20;99.90;;;;;;5064972;28;25142;-68
2022/04/16 05:16:29;;;;;;;40.17;27.80;;;7.30;99.90;;;;;;5063704;28;25120;-71
2022/04/16 05:18:54;;;;;;;33.38;25.45;;;7.30;99.90;;;;;;5064241;28;25111;-70
2022/04/16 05:21:20;;;;;;;42.70;28.05;;;7.30;99.90;;;;;;5064507;28;25065;-70
2022/04/16 05:23:46;;;;;;;35.00;26.42;;;7.30;99.90;;;;;;5063079;28;25065;-69
2022/04/16 05:26:12;;;;;;;39.47;28.20;;;7.40;99.90;;;;;;5065365;28;25059;-70
2022/04/16 05:28:38;;;;;;;45.42;27.52;;;7.40;99.90;;;;;;5064065;28;25079;-72
2022/04/16 05:31:04;;;;;;;46.15;28.75;;;7.40;99.90;;;;;;5063533;28;25074;-70
2022/04/16 05:36:15;;;;;;;42.10;27.90;;;7.50;99.90;;;;;;5064117;28;25067;-68
2022/04/16 05:38:40;;;;;;;45.22;28.90;;;7.50;99.90;;;;;;5062028;28;25132;-68
2022/04/16 05:41:06;;;;;;;39.63;27.55;;;7.50;99.90;;;;;;5054661;28;25172;-69
2022/04/16 05:43:32;;;;;;;36.90;26.02;;;7.50;99.90;;;;;;5067808;28;25106;-70
2022/04/16 05:45:58;;;;;;;33.17;25.23;;;7.60;99.90;;;;;;5069894;28;25082;-70
2022/04/16 05:48:23;;;;;;;41.42;27.52;;;7.60;99.90;;;;;;5065375;28;25069;-69
2022/04/16 05:50:49;;;;;;;36.78;27.48;;;7.60;99.90;;;;;;5065876;28;25076;-69
2022/04/16 05:53:15;;;;;;;39.97;26.67;;;7.60;99.90;;;;;;5064876;28;25069;-69
2022/04/16 05:55:47;;;;;;;41.10;28.85;;;7.70;99.90;;;;;;5064066;28;25131;-71
2022/04/16 05:58:13;;;;;;;38.70;28.85;;;7.70;99.90;;;;;;5044801;28;25057;-69
2022/04/16 06:00:39;;;;;;;42.17;28.95;;;7.70;99.90;;;;;;5043238;28;25060;-69
2022/04/16 06:03:05;;;;;;;40.75;28.42;;;7.70;99.90;;;;;;5061539;28;25075;-68
2022/04/16 06:05:34;;;;;;;41.38;29.27;;;7.70;99.90;;;;;;5061173;28;25098;-70
2022/04/16 06:08:00;;;;;;;42.85;28.38;;;7.80;99.90;;;;;;5064289;28;25079;-70
2022/04/16 06:10:26;;;;;;;40.25;29.17;;;7.80;99.90;;;;;;5065310;28;25093;-69
2022/04/16 06:12:52;;;;;;;41.90;27.63;;;7.80;99.90;;;;;;5067374;28;25109;-69
2022/04/16 06:15:18;;;;;;;41.25;28.55;;;7.80;99.90;;;;;;5073279;28;25153;-70
2022/04/16 06:17:43;;;;;;;42.83;28.85;;;7.90;99.90;;;;;;5053886;28;25133;-68
2022/04/16 06:20:09;;;;;;;43.08;29.88;;;7.80;99.90;;;;;;5072315;28;25060;-68
2022/04/16 06:22:35;;;;;;;40.45;28.42;;;7.90;99.90;;;;;;5074802;28;25095;-69
2022/04/16 06:25:01;;;;;;;44.88;29.65;;;7.90;99.90;;;;;;5072288;28;25133;-69
2022/04/16 06:27:27;;;;;;;42.42;29.88;;;7.90;99.90;;;;;;5070638;28;25069;-67
2022/04/16 06:29:53;;;;;;;44.05;30.33;;;8.00;99.90;;;;;;5069221;28;25121;-69
2022/04/16 06:32:18;;;;;;;41.42;29.80;;;8.10;99.90;;;;;;5067802;28;25079;-70
2022/04/16 06:34:44;;;;;;;44.63;31.08;;;8.30;99.90;;;;;;5066725;28;25174;-71
2022/04/16 06:37:10;;;;;;;41.97;30.25;;;8.30;99.90;;;;;;5066345;28;25060;-68
2022/04/16 06:39:35;;;;;;;41.60;28.25;;;8.30;99.90;;;;;;5068214;28;25076;-69
2022/04/16 06:42:01;;;;;;;42.65;30.17;;;8.40;99.90;;;;;;5071712;28;25158;-70
2022/04/16 06:44:27;;;;;;;45.90;29.40;;;8.50;99.90;;;;;;5080179;28;25070;-70
2022/04/16 06:46:54;;;;;;;42.33;30.25;;;8.70;99.90;;;;;;5076937;28;25101;-70
2022/04/16 06:49:20;;;;;;;40.15;30.00;;;8.70;99.90;;;;;;5068539;28;25082;-69
2022/04/16 06:51:46;;;;;;;47.70;32.47;;;8.90;99.90;;;;;;5067867;28;25057;-70
2022/04/16 06:54:11;;;;;;;47.38;32.20;;;8.90;99.90;;;;;;5064945;28;25147;-70
2022/04/16 06:56:37;;;;;;;45.65;31.73;;;8.90;99.90;;;;;;5065743;28;25157;-69
2022/04/16 06:59:02;;;;;;;43.35;31.35;;;9.00;99.90;;;;;;5064438;28;25067;-70
2022/04/16 07:01:28;;;;;;;44.58;31.15;;;9.10;99.90;;;;;;5065799;28;25070;-70
2022/04/16 07:03:54;;;;;;;45.92;31.63;;;9.20;99.90;;;;;;5067398;28;25115;-69
2022/04/16 07:06:19;;;;;;;40.35;30.67;;;9.20;99.90;;;;;;5067250;28;25079;-70
2022/04/16 07:08:45;;;;;;;45.95;30.30;;;9.40;99.90;;;;;;5067895;28;25070;-69
2022/04/16 07:11:11;;;;;;;43.72;30.75;;;9.50;99.20;;;;;;5076644;28;25050;-70
2022/04/16 07:13:36;;;;;;;43.15;31.85;;;9.70;98.80;;;;;;5074961;28;25081;-68
2022/04/16 07:16:02;;;;;;;43.63;32.03;;;9.60;96.10;;;;;;5071637;28;25093;-68
2022/04/16 07:18:27;;;;;;;48.20;33.05;;;9.60;95.80;;;;;;5068383;28;25062;-70
2022/04/16 07:20:53;;;;;;;49.70;32.20;;;9.60;96.60;;;;;;5066922;28;25128;-68
2022/04/16 07:23:18;;;;;;;43.35;31.58;;;9.70;96.30;;;;;;5047224;28;25053;-71
2022/04/16 07:25:44;;;;;;;45.67;31.58;;;9.70;95.30;;;;;;5071973;28;25075;-71
2022/04/16 07:28:15;;;;;;;39.47;30.60;;;9.90;95.80;;;;;;5075116;28;25101;-69
2022/04/16 07:30:40;;;;;;;45.35;31.20;;;10.10;95.60;;;;;;5066144;28;25117;-71
2022/04/16 07:33:06;;;;;;;42.28;29.90;;;10.30;93.50;;;;;;5067848;28;25051;-69
2022/04/16 07:35:32;;;;;;;41.50;30.23;;;10.40;93.50;;;;;;5068377;28;25141;-71
2022/04/16 07:37:57;;;;;;;43.38;30.95;;;10.60;90.70;;;;;;5067313;28;25074;-70
2022/04/16 07:40:24;;;;;;;43.40;30.30;;;10.70;90.50;;;;;;5068500;28;25062;-71
2022/04/16 07:42:50;;;;;;;38.42;28.70;;;10.70;86.60;;;;;;5050799;28;25083;-70
2022/04/16 07:45:15;;;;;;;38.35;28.13;;;10.70;86.70;;;;;;5065265;28;25075;-71
2022/04/16 07:47:41;;;;;;;40.40;28.02;;;10.80;83.20;;;;;;5065740;28;25059;-71
2022/04/16 07:50:07;;;;;;;38.63;28.92;;;10.90;84.40;;;;;;5065471;28;25072;-71
2022/04/16 07:52:33;;;;;;;39.17;28.38;;;11.10;79.70;;;;;;5066618;28;25057;-72
2022/04/16 07:54:58;;;;;;;34.30;25.85;;;11.10;74.20;;;;;;5066993;28;25135;-69
2022/04/16 07:57:24;;;;;;;39.88;28.77;;;11.30;75.10;;;;;;5067315;28;25143;-71
2022/04/16 07:59:49;;;;;;;34.08;26.60;;;11.30;72.00;;;;;;5066021;28;25125;-71
2022/04/16 08:02:15;;;;;;;38.85;28.45;;;11.50;72.30;;;;;;5067866;28;25086;-71
2022/04/16 08:04:41;;;;;;;40.08;26.48;;;11.50;69.00;;;;;;5066103;28;25083;-69
2022/04/16 08:07:06;;;;;;;37.40;25.38;;;11.60;70.80;;;;;;5067927;28;25054;-72
2022/04/16 08:09:32;;;;;;;37.05;26.58;;;11.80;68.90;;;;;;5065641;28;25103;-69
2022/04/16 08:11:58;;;;;;;39.38;27.85;;;11.90;65.80;;;;;;5066359;28;25130;-70
2022/04/16 08:14:25;;;;;;;39.20;26.83;;;12.10;66.90;;;;;;5065675;28;25138;-70
2022/04/16 08:16:50;;;;;;;31.55;24.02;;;12.20;66.40;;;;;;5067993;28;25066;-71
2022/04/16 08:19:16;;;;;;;35.03;26.25;;;12.30;63.30;;;;;;5067948;28;25069;-71
2022/04/16 08:21:42;;;;;;;35.88;26.20;;;12.10;61.00;;;;;;5071412;28;25058;-70
2022/04/16 08:26:36;;;;;;;34.28;27.10;;;12.20;60.50;;;;;;5073975;28;25058;-70
2022/04/16 08:29:02;;;;;;;39.72;27.15;;;12.20;62.10;;;;;;5075617;28;25128;-68
2022/04/16 08:31:28;;;;;;;34.92;25.85;;;12.30;60.20;;;;;;5053195;28;25070;-70
2022/04/16 08:33:54;;;;;;;34.13;25.00;;;12.30;60.90;;;;;;5073481;28;25155;-70
2022/04/16 08:36:19;;;;;;;38.30;26.85;;;12.50;58.30;;;;;;5076551;28;25106;-72
2022/04/16 08:38:45;;;;;;;35.97;27.02;;;12.40;56.90;;;;;;5077232;28;25065;-69
2022/04/16 08:41:11;;;;;;;32.88;25.55;;;12.40;57.20;;;;;;5079714;28;25135;-72
2022/04/16 08:43:38;;;;;;;36.50;25.95;;;12.50;57.40;;;;;;5083436;28;25076;-70
2022/04/16 08:46:04;;;;;;;35.33;24.55;;;12.60;56.70;;;;;;5081472;28;25063;-72
2022/04/16 08:48:31;;;;;;;36.75;26.40;;;12.80;56.90;;;;;;5078027;28;25078;-71
2022/04/16 08:50:58;;;;;;;31.23;23.35;;;13.00;55.40;;;;;;5077510;28;25106;-71
2022/04/16 08:53:24;;;;;;;31.13;23.40;;;13.20;52.60;;;;;;5055177;28;25128;-72
2022/04/16 08:55:49;;;;;;;38.10;25.95;;;13.50;53.30;;;;;;5068203;28;25061;-69
2022/04/16 08:58:15;;;;;;;36.97;25.30;;;13.70;47.80;;;;;;5067910;28;25063;-70
2022/04/16 09:00:40;;;;;;;30.45;23.85;;;13.70;48.20;;;;;;5068601;28;25135;-70
2022/04/16 09:03:09;;;;;;;33.63;24.40;;;13.80;46.30;;;;;;5070170;28;25099;-72
2022/04/16 09:05:35;;;;;;;32.63;25.00;;;13.70;47.70;;;;;;5070392;28;25065;-71
2022/04/16 09:08:05;;;;;;;37.95;26.00;;;13.70;45.10;;;;;;5066706;28;25066;-70
2022/04/16 09:10:32;;;;;;;32.53;23.30;;;13.70;46.20;;;;;;5048966;28;25126;-70
2022/04/16 09:13:00;;;;;;;34.97;26.00;;;13.90;47.10;;;;;;5068789;28;25061;-73
2022/04/16 09:15:27;;;;;;;32.90;24.70;;;13.80;46.20;;;;;;5064645;28;25042;-69
2022/04/16 09:18:13;;;;;;;34.10;23.95;;;13.90;45.20;;;;;;5066971;28;25090;-72
2022/04/16 09:20:40;;;;;;;35.42;25.55;;;13.70;46.50;;;;;;5067618;28;25063;-70
2022/04/16 09:23:17;;;;;;;32.55;24.35;;;14.00;44.90;;;;;;5064865;28;25052;-70
2022/04/16 09:25:44;;;;;;;32.00;23.45;;;14.30;47.90;;;;;;5046749;28;25074;-70
2022/04/16 09:28:09;;;;;;;31.25;22.85;;;14.50;44.00;;;;;;5064936;28;25087;-69
2022/04/16 09:30:37;;;;;;;28.33;22.98;;;14.70;40.70;;;;;;5065973;28;25110;-67
2022/04/16 09:33:03;;;;;;;30.05;22.83;;;14.40;38.70;;;;;;5069702;28;25089;-70
2022/04/16 09:35:36;;;;;;;34.22;23.58;;;14.10;41.20;;;;;;5079435;28;25069;-72
2022/04/16 09:38:04;;;;;;;29.50;21.95;;;14.40;41.50;;;;;;5076179;28;25072;-70
2022/04/16 09:40:31;;;;;;;26.33;20.65;;;14.30;38.30;;;;;;5069028;28;25063;-68
2022/04/16 09:43:00;;;;;;;28.10;21.25;;;14.70;38.20;;;;;;5055647;28;25059;-71
2022/04/16 09:45:26;;;;;;;26.70;20.52;;;14.70;36.10;;;;;;5079103;28;25065;-71
2022/04/16 09:47:52;;;;;;;26.60;20.10;;;14.80;38.60;;;;;;5083321;28;25081;-66
2022/04/16 09:50:20;;;;;;;25.80;19.73;;;15.30;31.10;;;;;;5078374;28;25077;-71
2022/04/16 09:52:57;;;;;;;28.02;19.95;;;14.70;35.20;;;;;;5079013;28;25110;-70
2022/04/16 09:55:25;;;;;;;28.83;20.55;;;14.80;37.80;;;;;;5078755;28;25068;-69
2022/04/16 09:57:58;;;;;;;28.42;20.33;;;15.50;33.90;;;;;;5050786;28;25068;-70
2022/04/16 10:00:25;;;;;;;23.85;18.77;;;15.50;30.60;;;;;;5068794;28;25144;-70
2022/04/16 10:02:53;;;;;;;28.58;19.40;;;15.50;33.90;;;;;;5068502;28;25081;-70
2022/04/16 10:05:20;;;;;;;25.08;18.88;;;15.40;29.90;;;;;;5056438;28;25133;-68
2022/04/16 10:07:47;;;;;;;24.05;18.98;;;15.40;29.30;;;;;;5078552;28;25087;-68
2022/04/16 10:10:25;;;;;;;23.42;18.45;;;15.30;31.60;;;;;;5076447;28;25074;-68
2022/04/16 10:13:05;;;;;;;22.20;17.63;;;15.60;34.20;;;;;;5077564;28;25045;-70
2022/04/16 10:16:00;;;;;;;25.88;18.40;;;16.00;28.00;;;;;;5078459;28;25056;-71
2022/04/16 10:18:26;;;;;;;22.38;17.30;;;15.60;29.50;;;;;;5070324;28;25098;-71
2022/04/16 10:20:58;;;;;;;25.77;18.10;;;16.40;29.60;;;;;;5070637;28;25081;-70
2022/04/16 10:23:42;;;;;;;;;;;15.90;27.20;;;;;;5072547;28;25093;-69
2022/04/16 10:26:10;;;;;;;19.27;14.85;;;15.90;27.90;;;;;;5069965;28;25059;-69
2022/04/16 10:28:40;;;;;;;19.40;14.73;;;15.90;25.20;;;;;;5067788;28;25054;-69
2022/04/16 10:31:18;;;;;;;18.17;13.90;;;16.10;24.20;;;;;;5068271;28;25087;-69
2022/04/16 10:33:59;;;;;;;17.25;13.77;;;15.70;23.20;;;;;;5068439;28;25069;-70
2022/04/16 10:36:32;;;;;;;15.45;12.43;;;15.30;23.00;;;;;;5068139;28;25106;-71
2022/04/16 10:38:58;;;;;;;12.82;10.50;;;15.40;23.10;;;;;;5069846;28;25059;-69
2022/04/16 10:41:26;;;;;;;16.70;12.32;;;16.20;23.20;;;;;;5068756;28;25104;-67
2022/04/16 10:44:00;;;;;;;15.73;11.60;;;16.10;21.60;;;;;;5066585;28;25059;-69
2022/04/16 10:46:47;;;;;;;14.57;10.85;;;16.30;19.10;;;;;;5067066;28;25153;-69
2022/04/16 10:49:13;;;;;;;14.25;10.27;;;16.00;18.70;;;;;;5068176;28;25051;-71
2022/04/16 10:51:40;;;;;;;14.63;10.75;;;16.30;19.30;;;;;;5067958;28;25147;-69
2022/04/16 10:54:15;;;;;;;12.73;10.73;;;16.80;18.50;;;;;;5048812;28;25066;-69
2022/04/16 10:56:51;;;;;;;13.05;9.95;;;16.20;18.70;;;;;;5064701;28;25084;-71
2022/04/16 10:59:17;;;;;;;15.05;11.48;;;16.30;20.30;;;;;;5048526;28;25054;-69
2022/04/16 11:01:53;;;;;;;11.45;9.57;;;15.70;19.80;;;;;;5065464;28;25154;-68
2022/04/16 11:04:19;;;;;;;17.52;11.07;;;15.70;19.50;;;;;;5065084;28;25087;-72
2022/04/16 11:06:45;;;;;;;14.70;12.25;;;16.30;18.50;;;;;;5067514;28;25149;-69
2022/04/16 11:09:18;;;;;;;16.40;11.95;;;16.30;20.00;;;;;;5049147;28;25056;-70
2022/04/16 11:11:50;;;;;;;14.02;12.02;;;16.70;17.90;;;;;;5067082;28;25127;-70
2022/04/16 11:14:16;;;;;;;15.57;10.90;;;16.00;19.20;;;;;;5066717;28;25095;-68
2022/04/16 11:16:47;;;;;;;12.07;10.38;;;16.30;18.80;;;;;;5065752;28;25165;-69
2022/04/16 11:19:15;;;;;;;12.38;9.77;;;16.30;18.30;;;;;;5048090;28;25058;-68
2022/04/16 11:21:42;;;;;;;12.50;9.73;;;16.40;16.00;;;;;;5066344;28;25092;-68
2022/04/16 11:24:09;;;;;;;9.18;6.90;;;15.80;17.80;;;;;;5049203;28;25097;-68
2022/04/16 11:34:54;;;;;;;9.05;7.68;;;16.80;16.50;;;;;;5066158;28;25129;-69
2022/04/16 11:37:20;;;;;;;9.43;8.13;;;17.20;12.90;;;;;;5065705;28;25089;-70
2022/04/16 11:39:46;;;;;;;9.57;7.95;;;16.80;12.30;;;;;;5049073;28;25106;-70
2022/04/16 11:42:12;;;;;;;8.70;7.60;;;16.20;15.10;;;;;;5049968;28;25048;-68
2022/04/16 11:44:40;;;;;;;7.70;6.65;;;16.50;13.70;;;;;;5075767;28;25072;-70
2022/04/16 11:47:06;;;;;;;5.47;4.80;;;17.20;11.00;;;;;;5051586;28;25056;-65
2022/04/16 11:49:33;;;;;;;6.03;4.50;;;17.20;6.90;;;;;;5066875;28;25148;-70
2022/04/16 11:51:59;;;;;;;5.47;4.57;;;17.00;9.90;;;;;;5048689;28;25053;-70
2022/04/16 11:54:28;;;;;;;5.20;4.50;;;17.90;8.10;;;;;;5048117;28;25072;-70
2022/04/16 11:56:55;;;;;;;4.75;4.25;;;18.60;5.60;;;;;;5064801;28;25130;-69
2022/04/16 11:59:25;;;;;;;8.27;5.45;;;17.80;2.50;;;;;;5065914;28;25065;-67
2022/04/16 12:01:58;;;;;;;8.60;5.13;;;17.00;5.00;;;;;;5048114;28;25074;-68
2022/04/16 12:04:33;;;;;;;7.53;5.10;;;17.20;5.60;;;;;;5064435;28;25067;-68
2022/04/16 12:06:58;;;;;;;6.97;5.88;;;17.40;4.90;;;;;;5066303;28;25160;-68
2022/04/16 12:09:24;;;;;;;7.75;6.00;;;17.20;7.70;;;;;;5063986;28;25068;-69
2022/04/16 12:11:54;;;;;;;5.90;5.18;;;17.10;5.40;;;;;;5064865;28;25132;-68
2022/04/16 12:14:19;;;;;;;6.95;5.57;;;17.40;5.40;;;;;;5065029;28;25043;-66
2022/04/16 12:16:56;;;;;;;7.88;5.90;;;17.50;2.60;;;;;;5065709;28;25057;-67
2022/04/16 12:19:21;;;;;;;8.82;6.70;;;17.70;4.20;;;;;;5066402;28;25126;-67
2022/04/16 12:21:47;;;;;;;7.85;7.05;;;17.70;4.70;;;;;;5066993;28;25073;-70
2022/04/16 12:24:12;;;;;;;7.65;6.68;;;17.20;2.70;;;;;;5047418;28;25062;-70
2022/04/16 12:26:48;;;;;;;7.50;6.28;;;17.30;4.60;;;;;;5062994;28;25058;-70
2022/04/16 12:29:13;;;;;;;8.75;6.50;;;17.80;5.10;;;;;;5062825;28;25094;-68
2022/04/16 12:31:40;;;;;;;7.68;5.70;;;17.60;3.80;;;;;;5063018;28;25101;-67
2022/04/16 12:34:06;;;;;;;7.30;6.15;;;17.60;5.80;;;;;;5064016;28;25067;-67
2022/04/16 12:36:31;;;;;;;9.63;6.43;;;17.80;4.90;;;;;;5066268;28;25067;-68
2022/04/16 12:38:57;;;;;;;8.77;6.80;;;17.70;3.70;;;;;;5069121;28;25156;-69
2022/04/16 12:41:22;;;;;;;7.43;6.63;;;17.10;3.30;;;;;;5069455;28;25151;-69
2022/04/16 12:43:48;;;;;;;7.30;6.15;;;17.20;3.80;;;;;;5074312;28;25053;-69
2022/04/16 12:46:14;;;;;;;9.77;6.78;;;17.40;3.00;;;;;;5074948;28;25049;-68
2022/04/16 12:48:39;;;;;;;7.57;6.20;;;17.00;3.00;;;;;;5076867;28;25072;-71
2022/04/16 12:51:05;;;;;;;9.35;7.70;;;17.20;3.00;;;;;;5076169;28;25067;-68
2022/04/16 12:53:30;;;;;;;9.55;7.97;;;16.90;2.20;;;;;;5073067;28;25125;-69
2022/04/16 12:55:56;;;;;;;9.07;7.55;;;16.30;3.40;;;;;;5073762;28;25084;-69
2022/04/16 12:58:22;;;;;;;12.25;7.68;;;16.00;5.20;;;;;;5072977;28;25079;-70
2022/04/16 13:00:47;;;;;;;9.25;7.93;;;16.20;5.90;;;;;;5072773;28;25112;-69